Time;durP1;ratioP1;P1;durP2;ratioP2;P2;SDS_P1;SDS_P2;PMS_P1;PMS_P2;Temp;Humidity;BMP_temperature;BMP_pressure;BME280_temperature;BME280_humidity;BME280_pressure;Samples;Min_cycle;Max_cycle;Signal;HPM_P1;HPM_P2
2023/07/27 00:02:07;;;;;;;3.53;2.30;;;17.20;99.90;;;;;;5085251;28;20882;-68
2023/07/27 00:04:33;;;;;;;3.27;2.60;;;17.20;99.90;;;;;;5086932;28;20550;-68
2023/07/27 00:06:58;;;;;;;3.23;2.20;;;17.20;99.90;;;;;;5077169;28;20177;-68
2023/07/27 00:09:24;;;;;;;3.40;2.27;;;17.10;99.90;;;;;;5083132;28;20497;-68
2023/07/27 00:11:49;;;;;;;6.10;2.27;;;17.10;99.90;;;;;;5087671;28;20174;-68
2023/07/27 00:14:15;;;;;;;4.27;2.07;;;17.10;99.90;;;;;;5081039;28;20190;-68
2023/07/27 00:16:40;;;;;;;2.20;1.90;;;17.20;99.90;;;;;;5082993;28;20185;-69
2023/07/27 00:19:06;;;;;;;4.50;2.13;;;17.20;99.90;;;;;;5089114;28;20200;-68
2023/07/27 00:21:31;;;;;;;4.40;2.07;;;17.20;99.90;;;;;;5090058;28;20537;-68
2023/07/27 00:23:57;;;;;;;3.97;2.07;;;17.20;99.90;;;;;;5084579;28;20588;-68
2023/07/27 00:26:23;;;;;;;2.60;1.63;;;17.20;99.90;;;;;;5084853;28;20661;-68
2023/07/27 00:28:48;;;;;;;4.13;2.80;;;17.20;99.90;;;;;;5089120;28;20568;-68
2023/07/27 00:31:14;;;;;;;2.50;2.17;;;17.20;99.90;;;;;;5089924;28;20177;-68
2023/07/27 00:33:39;;;;;;;3.10;1.83;;;17.10;99.90;;;;;;5082353;28;20181;-68
2023/07/27 00:36:05;;;;;;;3.83;2.50;;;17.10;99.90;;;;;;5087576;28;20654;-68
2023/07/27 00:38:30;;;;;;;2.63;2.00;;;17.20;99.90;;;;;;5090006;28;20673;-68
2023/07/27 00:40:56;;;;;;;2.63;2.37;;;17.20;99.90;;;;;;5084382;28;20179;-68
2023/07/27 00:43:22;;;;;;;2.40;1.83;;;17.20;99.90;;;;;;5088887;28;20174;-68
2023/07/27 00:45:49;;;;;;;2.50;2.30;;;17.10;99.90;;;;;;5092802;28;20455;-68
2023/07/27 00:48:16;;;;;;;2.57;2.03;;;17.10;99.90;;;;;;5094815;28;20256;-68
2023/07/27 00:50:41;;;;;;;2.57;2.10;;;17.10;99.90;;;;;;5093501;28;20454;-68
2023/07/27 00:53:08;;;;;;;4.70;2.37;;;17.10;99.90;;;;;;5092613;28;20482;-68
2023/07/27 00:55:35;;;;;;;3.50;2.67;;;17.10;99.90;;;;;;5093069;28;20214;-68
2023/07/27 00:58:01;;;;;;;2.23;1.57;;;17.10;99.90;;;;;;5088604;28;21005;-68
2023/07/27 01:00:27;;;;;;;3.83;2.80;;;17.10;99.90;;;;;;5092740;28;20575;-68
2023/07/27 01:02:53;;;;;;;3.23;2.20;;;17.10;99.90;;;;;;5087101;28;20468;-68
2023/07/27 01:05:19;;;;;;;3.10;1.80;;;17.10;99.90;;;;;;5087458;28;21176;-69
2023/07/27 01:07:45;;;;;;;3.50;1.80;;;17.10;99.90;;;;;;5094366;28;20640;-68
2023/07/27 01:10:11;;;;;;;4.50;2.43;;;17.10;99.90;;;;;;5093266;28;20558;-68
2023/07/27 01:12:58;;;;;;;2.80;2.17;;;17.10;99.90;;;;;;5089023;28;20175;-69
2023/07/27 01:15:28;;;;;;;2.03;1.93;;;17.10;99.90;;;;;;5085821;28;20439;-68
2023/07/27 01:18:04;;;;;;;2.13;1.93;;;17.20;99.90;;;;;;5093345;28;20435;-68
2023/07/27 01:20:46;;;;;;;2.13;1.93;;;17.20;99.90;;;;;;5084975;28;20867;-68
2023/07/27 01:23:49;;;;;;;4.30;2.37;;;17.20;99.90;;;;;;5083966;28;20499;-68
2023/07/27 01:26:53;;;;;;;1.93;1.73;;;17.20;99.90;;;;;;5087445;28;20462;-69
2023/07/27 01:29:44;;;;;;;4.43;2.37;;;17.20;99.90;;;;;;5089442;28;20451;-68
2023/07/27 01:32:12;;;;;;;2.77;1.87;;;17.30;99.90;;;;;;5078260;28;20423;-68
2023/07/27 01:34:41;;;;;;;2.30;1.77;;;17.30;99.90;;;;;;5092406;28;20414;-68
2023/07/27 01:37:11;;;;;;;4.40;2.57;;;17.30;99.90;;;;;;5093463;28;20502;-68
2023/07/27 01:39:42;;;;;;;2.93;1.90;;;17.30;99.90;;;;;;5092648;28;20451;-68
2023/07/27 01:42:11;;;;;;;5.17;2.63;;;17.30;99.90;;;;;;5090390;28;20423;-68
2023/07/27 01:44:38;;;;;;;2.33;1.80;;;17.30;99.90;;;;;;5088312;28;20542;-68
2023/07/27 01:47:05;;;;;;;4.73;2.10;;;17.20;99.90;;;;;;5081615;28;20816;-68
2023/07/27 01:49:32;;;;;;;2.07;1.87;;;17.30;99.90;;;;;;5080420;28;20444;-68
2023/07/27 01:51:58;;;;;;;3.53;1.93;;;17.30;99.90;;;;;;5090004;28;20507;-68
2023/07/27 01:54:26;;;;;;;2.37;1.70;;;17.20;99.90;;;;;;5087885;28;21168;-68
2023/07/27 01:56:54;;;;;;;4.23;2.73;;;17.30;99.90;;;;;;5091935;28;20578;-68
2023/07/27 01:59:21;;;;;;;3.90;2.40;;;17.20;99.90;;;;;;5092482;28;20412;-68
2023/07/27 02:01:48;;;;;;;1.70;1.60;;;17.20;99.90;;;;;;5086302;28;20431;-68
2023/07/27 02:04:14;;;;;;;2.80;1.90;;;17.20;99.90;;;;;;5092141;28;20421;-69
2023/07/27 02:06:39;;;;;;;2.40;2.10;;;17.20;99.90;;;;;;5076950;28;20412;-68
2023/07/27 02:09:05;;;;;;;3.30;2.20;;;17.20;99.90;;;;;;5071692;28;20209;-68
2023/07/27 02:11:31;;;;;;;2.97;2.30;;;17.20;99.90;;;;;;5087094;28;20218;-66
2023/07/27 02:14:03;;;;;;;1.80;1.67;;;17.10;99.90;;;;;;5091520;28;20219;-69
2023/07/27 02:16:50;;;;;;;7.83;2.37;;;17.10;99.90;;;;;;5091289;28;20177;-67
2023/07/27 02:19:17;;;;;;;1.70;1.60;;;17.20;99.90;;;;;;5087205;28;20975;-67
2023/07/27 02:21:44;;;;;;;3.00;2.37;;;17.10;99.90;;;;;;5089558;28;20469;-67
2023/07/27 02:24:10;;;;;;;3.23;2.40;;;17.10;99.90;;;;;;5073719;28;20408;-68
2023/07/27 02:26:35;;;;;;;3.10;2.33;;;17.10;99.90;;;;;;5072100;28;20533;-68
2023/07/27 02:29:01;;;;;;;3.03;1.93;;;17.10;99.90;;;;;;5072524;28;20261;-68
2023/07/27 02:31:26;;;;;;;4.53;1.90;;;17.00;99.90;;;;;;5087937;28;20191;-68
2023/07/27 02:33:52;;;;;;;3.20;2.30;;;17.00;99.90;;;;;;5090700;28;20261;-68
2023/07/27 02:36:17;;;;;;;2.53;1.63;;;17.00;99.90;;;;;;5092381;28;20173;-67
2023/07/27 02:38:43;;;;;;;4.03;2.33;;;16.90;99.90;;;;;;5091579;28;20303;-68
2023/07/27 02:41:12;;;;;;;2.70;1.87;;;16.90;99.90;;;;;;5087993;28;20686;-67
2023/07/27 02:43:38;;;;;;;4.00;2.43;;;16.90;99.90;;;;;;5084696;28;20177;-67
2023/07/27 02:46:05;;;;;;;2.90;2.27;;;16.80;99.90;;;;;;5070564;28;21042;-68
2023/07/27 02:48:30;;;;;;;5.30;2.23;;;16.70;99.90;;;;;;5070432;28;20447;-67
2023/07/27 02:50:56;;;;;;;3.40;2.50;;;16.60;99.90;;;;;;5088120;28;20420;-67
2023/07/27 02:53:22;;;;;;;2.57;2.30;;;16.60;99.90;;;;;;5085104;28;20185;-68
2023/07/27 02:56:01;;;;;;;2.97;2.47;;;16.60;99.90;;;;;;5081479;28;20666;-67
2023/07/27 02:58:27;;;;;;;3.40;2.20;;;16.60;99.90;;;;;;5088215;28;20177;-67
2023/07/27 03:01:02;;;;;;;3.10;2.17;;;16.60;99.90;;;;;;5082084;28;21467;-67
2023/07/27 03:03:28;;;;;;;2.50;2.20;;;16.60;99.90;;;;;;5080946;28;20814;-67
2023/07/27 03:06:00;;;;;;;3.20;2.30;;;16.50;99.90;;;;;;5084468;28;20503;-67
2023/07/27 03:08:27;;;;;;;4.87;2.47;;;16.50;99.90;;;;;;5079872;28;20569;-67
2023/07/27 03:10:53;;;;;;;2.10;1.93;;;16.50;99.90;;;;;;5086195;28;20427;-67
2023/07/27 03:13:18;;;;;;;2.37;2.10;;;16.50;99.90;;;;;;5082525;28;20435;-68
2023/07/27 03:15:44;;;;;;;3.37;2.80;;;16.40;99.90;;;;;;5076605;28;20497;-67
2023/07/27 03:18:09;;;;;;;2.50;2.30;;;16.40;99.90;;;;;;5090846;28;20185;-68
2023/07/27 03:20:42;;;;;;;3.90;3.40;;;16.40;99.90;;;;;;5079815;28;20233;-67
2023/07/27 03:23:08;;;;;;;6.00;2.40;;;16.30;99.90;;;;;;5085980;28;20302;-67
2023/07/27 03:25:37;;;;;;;3.50;2.57;;;16.10;99.90;;;;;;5085583;28;20472;-67
2023/07/27 03:28:05;;;;;;;4.50;2.50;;;16.10;99.90;;;;;;5081383;28;20928;-67
2023/07/27 03:30:31;;;;;;;7.43;2.93;;;16.00;99.90;;;;;;5083234;28;20536;-67
2023/07/27 03:32:57;;;;;;;2.93;2.57;;;15.90;99.90;;;;;;5090815;28;20922;-67
2023/07/27 03:35:23;;;;;;;3.63;3.07;;;15.90;99.90;;;;;;5089803;28;20440;-67
2023/07/27 03:37:50;;;;;;;3.00;2.53;;;15.90;99.90;;;;;;5078047;28;20244;-67
2023/07/27 03:40:16;;;;;;;2.97;2.63;;;15.80;99.90;;;;;;5089699;28;20342;-68
2023/07/27 03:42:41;;;;;;;3.30;2.57;;;15.80;99.90;;;;;;5091859;28;20922;-68
2023/07/27 03:45:07;;;;;;;4.33;2.40;;;15.80;99.90;;;;;;5089561;28;20258;-68
2023/07/27 03:47:33;;;;;;;3.03;2.77;;;15.80;99.90;;;;;;5084807;28;20647;-68
2023/07/27 03:49:58;;;;;;;2.17;1.97;;;15.80;99.90;;;;;;5071168;28;20475;-68
2023/07/27 03:52:24;;;;;;;6.03;2.63;;;15.70;99.90;;;;;;5085738;28;20177;-68
2023/07/27 03:54:49;;;;;;;3.77;2.90;;;15.70;99.90;;;;;;5089571;28;20646;-68
2023/07/27 03:57:15;;;;;;;3.00;2.70;;;15.70;99.90;;;;;;5090842;28;20261;-68
2023/07/27 03:59:40;;;;;;;3.60;3.07;;;15.70;99.90;;;;;;5081824;28;20273;-68
2023/07/27 04:02:06;;;;;;;5.00;2.63;;;15.70;99.90;;;;;;5091531;28;20583;-68
2023/07/27 04:04:31;;;;;;;2.43;2.10;;;15.60;99.90;;;;;;5084388;28;20198;-68
2023/07/27 04:06:57;;;;;;;3.50;2.63;;;15.70;99.90;;;;;;5088915;28;20176;-68
2023/07/27 04:09:22;;;;;;;2.40;2.20;;;15.70;99.90;;;;;;5085122;28;20243;-68
2023/07/27 04:11:48;;;;;;;4.13;2.87;;;15.60;99.90;;;;;;5075374;28;20186;-68
2023/07/27 04:14:13;;;;;;;4.50;3.33;;;15.70;99.90;;;;;;5089618;28;20170;-68
2023/07/27 04:16:39;;;;;;;2.83;2.53;;;15.70;99.90;;;;;;5094101;28;20170;-68
2023/07/27 04:19:04;;;;;;;7.23;2.63;;;15.80;99.90;;;;;;5095348;28;20646;-68
2023/07/27 04:21:30;;;;;;;3.93;2.57;;;15.80;99.90;;;;;;5082214;28;20190;-68
2023/07/27 04:23:55;;;;;;;5.43;3.83;;;15.80;99.90;;;;;;5085563;28;20664;-68
2023/07/27 04:26:21;;;;;;;4.27;3.47;;;15.80;99.90;;;;;;5084355;28;20205;-68
2023/07/27 04:28:46;;;;;;;4.00;3.40;;;15.70;99.90;;;;;;5093775;28;20197;-68
2023/07/27 04:31:12;;;;;;;7.40;3.57;;;15.70;99.90;;;;;;5087416;28;20182;-68
2023/07/27 04:33:37;;;;;;;4.20;3.23;;;15.70;99.90;;;;;;5092482;28;20646;-68
2023/07/27 04:36:03;;;;;;;4.53;2.90;;;15.70;99.90;;;;;;5094792;28;20169;-68
2023/07/27 04:38:29;;;;;;;6.40;2.70;;;15.70;99.90;;;;;;5091108;28;20244;-68
2023/07/27 04:40:55;;;;;;;2.80;2.60;;;15.60;99.90;;;;;;5081526;28;20258;-68
2023/07/27 04:43:20;;;;;;;3.60;2.93;;;15.60;99.90;;;;;;5094768;28;20423;-68
2023/07/27 04:45:46;;;;;;;4.00;3.27;;;15.60;99.90;;;;;;5084076;28;20213;-68
2023/07/27 04:48:11;;;;;;;4.23;3.53;;;15.50;99.90;;;;;;5090552;28;20184;-68
2023/07/27 04:50:37;;;;;;;4.27;3.87;;;15.50;99.90;;;;;;5085181;28;20190;-68
2023/07/27 04:53:02;;;;;;;6.83;4.90;;;15.60;99.90;;;;;;5091588;28;20219;-68
2023/07/27 04:55:28;;;;;;;9.50;4.57;;;15.50;99.90;;;;;;5087598;28;20605;-68
2023/07/27 04:57:53;;;;;;;6.40;4.00;;;15.60;99.90;;;;;;5091745;28;20199;-68
2023/07/27 05:00:19;;;;;;;4.80;3.67;;;15.50;99.90;;;;;;5090070;28;20204;-68
2023/07/27 05:02:45;;;;;;;6.60;3.53;;;15.50;99.90;;;;;;5094311;28;20203;-68
2023/07/27 05:05:10;;;;;;;3.40;3.07;;;15.50;99.90;;;;;;5094222;28;20292;-68
2023/07/27 05:07:36;;;;;;;3.43;2.90;;;15.40;99.90;;;;;;5093378;28;20276;-69
2023/07/27 05:10:01;;;;;;;6.30;3.67;;;15.40;99.90;;;;;;5092607;28;20272;-68
2023/07/27 05:12:32;;;;;;;4.07;3.40;;;15.40;99.90;;;;;;5083841;28;20187;-68
2023/07/27 05:14:58;;;;;;;3.67;3.00;;;15.30;99.90;;;;;;5091448;28;20189;-69
2023/07/27 05:17:23;;;;;;;4.37;3.37;;;15.30;99.90;;;;;;5086740;28;20438;-69
2023/07/27 05:19:49;;;;;;;3.97;3.10;;;15.30;99.90;;;;;;5093048;28;20431;-68
2023/07/27 05:22:14;;;;;;;3.50;3.20;;;15.30;99.90;;;;;;5091636;28;20191;-68
2023/07/27 05:24:40;;;;;;;5.07;3.60;;;15.30;99.90;;;;;;5086031;28;20232;-68
2023/07/27 05:27:06;;;;;;;3.40;3.10;;;15.30;99.90;;;;;;5076983;28;20174;-69
2023/07/27 05:29:31;;;;;;;6.27;3.87;;;15.20;99.90;;;;;;5086640;28;20282;-69
2023/07/27 05:31:57;;;;;;;5.93;4.33;;;15.10;99.90;;;;;;5086350;28;20658;-68
2023/07/27 05:34:23;;;;;;;4.20;3.27;;;15.10;99.90;;;;;;5092994;28;20287;-71
2023/07/27 05:36:48;;;;;;;4.37;3.17;;;15.10;99.90;;;;;;5091994;28;20787;-69
2023/07/27 05:39:14;;;;;;;4.23;3.60;;;15.10;99.90;;;;;;5091708;28;20264;-70
2023/07/27 05:41:39;;;;;;;3.63;3.33;;;15.00;99.90;;;;;;5088147;28;20170;-70
2023/07/27 05:44:05;;;;;;;5.97;3.83;;;15.00;99.90;;;;;;5086819;28;20188;-70
2023/07/27 05:46:30;;;;;;;3.90;3.07;;;15.00;99.90;;;;;;5088074;28;20201;-70
2023/07/27 05:48:56;;;;;;;4.20;3.20;;;14.90;99.90;;;;;;5073834;28;20216;-70
2023/07/27 05:51:21;;;;;;;7.10;4.60;;;15.00;99.90;;;;;;5079976;28;20718;-70
2023/07/27 05:53:47;;;;;;;7.40;3.50;;;14.90;99.90;;;;;;5092726;28;20638;-70
2023/07/27 05:56:13;;;;;;;6.33;4.30;;;15.00;99.90;;;;;;5093245;28;20165;-70
2023/07/27 05:58:38;;;;;;;4.53;3.70;;;15.00;99.90;;;;;;5092457;28;20220;-70
2023/07/27 06:01:04;;;;;;;7.10;3.77;;;15.00;99.90;;;;;;5088993;28;20178;-71
2023/07/27 06:03:31;;;;;;;7.60;4.73;;;15.00;99.90;;;;;;5087091;28;20651;-69
2023/07/27 06:05:57;;;;;;;6.67;4.03;;;15.00;99.90;;;;;;5091409;28;20300;-69
2023/07/27 06:08:23;;;;;;;7.50;4.50;;;15.10;99.90;;;;;;5093224;28;20416;-69
2023/07/27 06:10:58;;;;;;;4.67;3.80;;;15.10;99.90;;;;;;5083549;28;20825;-69
2023/07/27 06:13:23;;;;;;;6.33;4.43;;;15.00;99.90;;;;;;5091533;28;20481;-68
2023/07/27 06:15:49;;;;;;;7.00;5.03;;;15.00;99.90;;;;;;5084348;28;20475;-71
2023/07/27 06:18:14;;;;;;;6.50;4.90;;;15.10;99.90;;;;;;5099183;28;20227;-71
2023/07/27 06:20:40;;;;;;;9.83;5.10;;;15.00;99.90;;;;;;5088904;28;20259;-69
2023/07/27 06:23:06;;;;;;;8.07;5.50;;;15.10;99.90;;;;;;5091203;28;20172;-70
2023/07/27 06:25:31;;;;;;;10.13;5.80;;;15.10;99.90;;;;;;5073204;28;20444;-70
2023/07/27 06:27:57;;;;;;;11.67;5.33;;;15.10;99.90;;;;;;5074897;28;20547;-70
2023/07/27 06:30:22;;;;;;;10.40;5.90;;;15.20;99.90;;;;;;5087575;28;20209;-69
2023/07/27 06:32:48;;;;;;;6.87;4.97;;;15.20;99.90;;;;;;5092738;28;20169;-69
2023/07/27 06:35:14;;;;;;;6.93;4.90;;;15.20;99.90;;;;;;5090394;28;20165;-69
2023/07/27 06:37:39;;;;;;;9.00;4.33;;;15.30;99.90;;;;;;5079773;28;20170;-71
2023/07/27 06:40:06;;;;;;;3.70;3.40;;;15.30;99.90;;;;;;5086345;28;20225;-71
2023/07/27 06:42:31;;;;;;;4.83;3.03;;;15.40;99.90;;;;;;5083218;28;20680;-71
2023/07/27 06:44:57;;;;;;;3.20;2.90;;;15.60;99.90;;;;;;5089175;28;20537;-72
2023/07/27 06:47:23;;;;;;;4.13;3.30;;;15.60;99.90;;;;;;5089024;28;20187;-72
2023/07/27 06:49:48;;;;;;;3.70;3.33;;;15.80;99.90;;;;;;5070944;28;20443;-70
2023/07/27 06:52:14;;;;;;;3.50;3.20;;;15.80;99.90;;;;;;5087655;28;20248;-72
2023/07/27 06:54:39;;;;;;;3.67;2.50;;;15.80;99.90;;;;;;5080413;28;20655;-73
2023/07/27 06:57:09;;;;;;;5.30;2.70;;;15.90;99.90;;;;;;5078776;28;20174;-72
2023/07/27 06:59:35;;;;;;;3.80;3.27;;;16.00;99.90;;;;;;5080128;28;20674;-71
2023/07/27 07:02:01;;;;;;;3.80;3.20;;;16.10;99.90;;;;;;5077307;28;20485;-71
2023/07/27 07:04:26;;;;;;;3.27;2.63;;;16.10;99.90;;;;;;5072370;28;20460;-71
2023/07/27 07:06:52;;;;;;;4.27;2.67;;;16.20;99.90;;;;;;5081699;28;20189;-70
2023/07/27 07:09:17;;;;;;;2.80;2.50;;;16.30;99.90;;;;;;5086979;28;20284;-68
2023/07/27 07:11:43;;;;;;;4.03;3.63;;;16.40;99.90;;;;;;5091818;28;20185;-69
2023/07/27 07:14:08;;;;;;;3.53;2.50;;;16.40;99.90;;;;;;5083845;28;20178;-69
2023/07/27 07:16:34;;;;;;;6.33;2.60;;;16.40;99.90;;;;;;5079303;28;20697;-70
2023/07/27 07:18:59;;;;;;;2.83;2.53;;;16.50;99.90;;;;;;5084427;28;20197;-68
2023/07/27 07:21:25;;;;;;;5.10;2.90;;;16.50;99.90;;;;;;5085471;28;20178;-70
2023/07/27 07:23:50;;;;;;;2.53;2.20;;;16.50;99.90;;;;;;5080264;28;20185;-70
2023/07/27 07:26:16;;;;;;;5.00;3.40;;;16.50;99.90;;;;;;5076677;28;20197;-69
2023/07/27 07:28:42;;;;;;;5.20;2.67;;;16.50;99.90;;;;;;5085813;28;20553;-69
2023/07/27 07:31:07;;;;;;;2.83;2.63;;;16.60;99.90;;;;;;5084385;28;20291;-70
2023/07/27 07:33:33;;;;;;;3.10;2.80;;;16.60;99.90;;;;;;5084889;28;20244;-70
2023/07/27 07:35:58;;;;;;;5.50;2.77;;;16.80;99.90;;;;;;5090802;28;20193;-70
2023/07/27 07:38:24;;;;;;;2.90;2.63;;;16.90;99.90;;;;;;5085484;28;20865;-71
2023/07/27 07:40:49;;;;;;;2.17;2.00;;;17.00;99.90;;;;;;5085964;28;20202;-70
2023/07/27 07:43:15;;;;;;;2.80;2.00;;;17.00;99.90;;;;;;5078924;28;21021;-70
2023/07/27 07:45:40;;;;;;;2.30;1.90;;;17.00;99.90;;;;;;5087734;28;20202;-71
2023/07/27 07:48:06;;;;;;;3.30;2.80;;;17.10;99.90;;;;;;5084663;28;20177;-71
2023/07/27 07:50:36;;;;;;;2.40;2.20;;;17.10;99.90;;;;;;5089337;28;20189;-70
2023/07/27 07:53:03;;;;;;;2.37;1.60;;;17.30;99.90;;;;;;5081652;28;20201;-70
2023/07/27 07:55:28;;;;;;;2.63;1.43;;;17.30;99.90;;;;;;5094915;28;20772;-71
2023/07/27 07:57:54;;;;;;;2.17;1.97;;;17.30;99.90;;;;;;5095702;28;20611;-71
2023/07/27 08:00:19;;;;;;;1.83;1.63;;;17.40;99.90;;;;;;5095537;28;20189;-71
2023/07/27 08:02:45;;;;;;;2.77;1.83;;;17.50;99.90;;;;;;5091885;28;20181;-70
2023/07/27 08:05:10;;;;;;;1.80;1.60;;;17.60;99.90;;;;;;5095259;28;20197;-70
2023/07/27 08:07:36;;;;;;;2.50;2.03;;;17.70;99.90;;;;;;5094240;28;20554;-71
2023/07/27 08:10:02;;;;;;;2.33;2.13;;;17.60;99.90;;;;;;5094065;28;20197;-71
2023/07/27 08:12:28;;;;;;;1.87;1.30;;;17.70;99.90;;;;;;5094475;28;20165;-71
2023/07/27 08:14:53;;;;;;;3.10;2.03;;;17.70;99.90;;;;;;5095515;28;20923;-70
2023/07/27 08:17:19;;;;;;;4.70;2.87;;;17.70;99.90;;;;;;5095607;28;20165;-70
2023/07/27 08:19:44;;;;;;;1.50;1.37;;;17.80;99.90;;;;;;5092995;28;20198;-70
2023/07/27 08:22:10;;;;;;;1.70;1.40;;;17.70;99.90;;;;;;5095356;28;20173;-69
2023/07/27 08:24:35;;;;;;;1.90;1.80;;;17.80;99.90;;;;;;5095608;28;20224;-70
2023/07/27 08:27:04;;;;;;;2.37;1.83;;;17.70;99.90;;;;;;5093874;28;20634;-70
2023/07/27 08:29:29;;;;;;;1.70;1.53;;;17.60;99.90;;;;;;5093073;28;20220;-70
2023/07/27 08:31:55;;;;;;;1.60;1.50;;;17.50;99.90;;;;;;5091093;28;20940;-70
2023/07/27 08:34:21;;;;;;;3.00;2.03;;;17.60;99.90;;;;;;5095145;28;20176;-70
2023/07/27 08:36:50;;;;;;;1.63;1.53;;;17.60;99.90;;;;;;5094924;28;20166;-70
2023/07/27 08:39:16;;;;;;;2.60;2.30;;;17.70;99.90;;;;;;5086106;28;20286;-70
2023/07/27 08:41:42;;;;;;;2.07;1.83;;;17.80;99.90;;;;;;5092731;28;20404;-70
2023/07/27 08:44:07;;;;;;;2.13;1.73;;;17.90;99.90;;;;;;5095009;28;20741;-70
2023/07/27 08:46:33;;;;;;;2.70;2.00;;;17.90;99.90;;;;;;5092313;28;20944;-70
2023/07/27 08:49:01;;;;;;;1.97;1.80;;;17.90;99.90;;;;;;5086510;28;20181;-68
2023/07/27 08:51:29;;;;;;;2.50;2.30;;;17.90;99.90;;;;;;5094924;28;20399;-70
2023/07/27 08:53:55;;;;;;;3.00;1.80;;;18.00;99.90;;;;;;5095053;28;20439;-69
2023/07/27 08:56:20;;;;;;;2.07;1.97;;;18.20;99.90;;;;;;5093391;28;20456;-70
2023/07/27 08:58:46;;;;;;;2.17;2.00;;;18.30;99.90;;;;;;5086110;28;20200;-69
2023/07/27 09:01:13;;;;;;;1.70;1.60;;;18.40;99.90;;;;;;5093716;28;20170;-69
2023/07/27 09:03:42;;;;;;;2.43;2.23;;;18.40;99.90;;;;;;5094545;28;20200;-69
2023/07/27 09:06:08;;;;;;;5.10;3.20;;;18.50;99.90;;;;;;5090318;28;20470;-69
2023/07/27 09:08:33;;;;;;;2.70;1.53;;;18.50;99.90;;;;;;5090862;28;20431;-69
2023/07/27 09:11:06;;;;;;;1.47;1.37;;;18.50;99.90;;;;;;5094596;28;20154;-69
2023/07/27 09:13:32;;;;;;;1.70;1.60;;;18.60;99.90;;;;;;5093512;28;20711;-69
2023/07/27 09:15:59;;;;;;;2.13;1.97;;;18.60;99.90;;;;;;5092075;28;20439;-69
2023/07/27 09:18:26;;;;;;;1.87;1.73;;;18.70;99.90;;;;;;5092973;28;20181;-69
2023/07/27 09:20:51;;;;;;;1.50;1.30;;;18.90;99.90;;;;;;5094297;28;20408;-69
2023/07/27 09:23:20;;;;;;;2.60;1.40;;;19.00;99.90;;;;;;5094173;28;20406;-69
2023/07/27 09:25:56;;;;;;;2.00;1.80;;;18.90;99.90;;;;;;5093741;28;20185;-69
2023/07/27 09:28:26;;;;;;;1.60;1.50;;;18.80;99.90;;;;;;5088798;28;20419;-70
2023/07/27 09:30:57;;;;;;;1.90;1.70;;;18.90;99.90;;;;;;5095729;28;20408;-73
2023/07/27 09:33:22;;;;;;;1.93;1.40;;;19.00;99.90;;;;;;5094419;28;20914;-68
2023/07/27 09:35:51;;;;;;;2.73;1.40;;;19.10;99.90;;;;;;5093986;28;20483;-68
2023/07/27 09:38:24;;;;;;;1.67;1.10;;;19.20;99.90;;;;;;5088884;28;20223;-68
2023/07/27 09:40:50;;;;;;;1.73;1.23;;;19.20;99.90;;;;;;5093938;28;20955;-68
2023/07/27 09:43:16;;;;;;;3.30;1.87;;;19.20;99.90;;;;;;5092769;28;20437;-68
2023/07/27 09:45:41;;;;;;;3.57;2.83;;;19.30;99.90;;;;;;5093543;28;20455;-67
2023/07/27 09:48:08;;;;;;;1.93;1.73;;;19.40;99.90;;;;;;5080600;28;20178;-68
2023/07/27 09:50:34;;;;;;;1.80;1.47;;;19.50;99.90;;;;;;5092110;28;20225;-68
2023/07/27 09:53:02;;;;;;;1.63;1.13;;;19.50;99.90;;;;;;5087002;28;20423;-68
2023/07/27 09:55:30;;;;;;;1.70;1.60;;;19.70;99.90;;;;;;5092015;28;20495;-68
2023/07/27 09:57:57;;;;;;;1.80;1.53;;;19.90;99.90;;;;;;5088654;28;20427;-68
2023/07/27 10:00:23;;;;;;;1.67;1.57;;;19.90;99.90;;;;;;5093515;28;20484;-68
2023/07/27 10:02:49;;;;;;;1.30;1.13;;;19.90;99.90;;;;;;5091973;28;20411;-68
2023/07/27 10:05:14;;;;;;;2.73;2.53;;;19.90;99.90;;;;;;5093277;28;20276;-68
2023/07/27 10:07:42;;;;;;;1.60;1.47;;;20.00;99.90;;;;;;5082243;28;20182;-68
2023/07/27 10:10:28;;;;;;;2.53;1.90;;;20.00;99.90;;;;;;5093715;28;20185;-68
2023/07/27 10:12:56;;;;;;;1.87;1.67;;;20.10;99.90;;;;;;5093330;28;21034;-68
2023/07/27 10:15:27;;;;;;;1.50;1.40;;;20.10;99.90;;;;;;5091849;28;20501;-68
2023/07/27 10:17:56;;;;;;;2.43;1.80;;;20.10;99.90;;;;;;5087771;28;20823;-69
2023/07/27 10:20:30;;;;;;;2.50;1.70;;;20.10;99.90;;;;;;5093116;28;20857;-68
2023/07/27 10:23:11;;;;;;;1.80;1.50;;;20.10;99.90;;;;;;5093315;28;20427;-68
2023/07/27 10:26:00;;;;;;;1.87;1.77;;;20.00;99.90;;;;;;5091554;28;20473;-68
2023/07/27 10:28:35;;;;;;;2.37;1.40;;;20.00;99.90;;;;;;5089074;28;20892;-67
2023/07/27 10:31:17;;;;;;;1.90;1.60;;;20.00;99.90;;;;;;5072786;28;20912;-67
2023/07/27 10:33:55;;;;;;;1.63;1.50;;;19.90;99.90;;;;;;5072747;28;20401;-67
2023/07/27 10:36:23;;;;;;;1.70;1.33;;;20.00;99.90;;;;;;5071961;28;20944;-67
2023/07/27 10:38:56;;;;;;;1.70;1.60;;;20.20;99.90;;;;;;5074321;28;20448;-67
2023/07/27 10:41:24;;;;;;;1.30;1.20;;;20.30;99.90;;;;;;5091482;28;20407;-67
2023/07/27 10:44:08;;;;;;;1.40;1.00;;;20.50;99.90;;;;;;5092761;28;20408;-67
2023/07/27 10:46:45;;;;;;;1.80;1.30;;;20.70;99.90;;;;;;5085299;28;20463;-67
2023/07/27 10:49:12;;;;;;;3.43;1.03;;;20.80;99.90;;;;;;5091433;28;20435;-67
2023/07/27 10:51:38;;;;;;;1.50;1.37;;;21.00;99.90;;;;;;5091515;28;20434;-67
2023/07/27 10:54:04;;;;;;;3.30;1.30;;;21.30;99.90;;;;;;5091368;28;20911;-68
2023/07/27 10:56:32;;;;;;;4.20;1.37;;;21.60;99.90;;;;;;5083171;28;20602;-67
2023/07/27 10:59:01;;;;;;;2.13;1.40;;;21.80;99.90;;;;;;5081346;28;20453;-67
2023/07/27 11:01:33;;;;;;;1.07;0.70;;;21.80;99.90;;;;;;5090907;28;20888;-67
2023/07/27 11:03:59;;;;;;;1.33;0.90;;;21.90;99.90;;;;;;5089624;28;20404;-67
2023/07/27 11:06:28;;;;;;;1.70;1.30;;;21.70;99.90;;;;;;5085243;28;20474;-67
2023/07/27 11:08:55;;;;;;;1.60;1.30;;;21.60;99.90;;;;;;5090154;28;20213;-67
2023/07/27 11:11:24;;;;;;;2.13;1.40;;;21.50;99.90;;;;;;5091442;28;20425;-67
2023/07/27 11:13:49;;;;;;;2.17;1.50;;;21.50;99.90;;;;;;5091119;28;20419;-67
2023/07/27 11:16:16;;;;;;;1.70;1.57;;;21.70;99.90;;;;;;5086847;28;20920;-67
2023/07/27 11:18:42;;;;;;;1.20;1.10;;;21.90;99.90;;;;;;5088737;28;20863;-68
2023/07/27 11:21:08;;;;;;;1.47;1.20;;;21.90;99.90;;;;;;5090951;28;20415;-68
2023/07/27 11:23:46;;;;;;;2.00;1.50;;;22.10;99.90;;;;;;5090401;28;20435;-68
2023/07/27 11:26:12;;;;;;;3.23;2.33;;;22.40;99.90;;;;;;5086256;28;20487;-68
2023/07/27 11:28:39;;;;;;;1.67;1.10;;;22.70;99.90;;;;;;5087843;28;20765;-67
2023/07/27 11:31:08;;;;;;;3.43;1.20;;;23.00;99.90;;;;;;5092143;28;20482;-68
2023/07/27 11:33:38;;;;;;;1.80;1.40;;;23.30;99.90;;;;;;5090980;28;20418;-68
2023/07/27 11:36:07;;;;;;;2.33;1.60;;;23.50;99.90;;;;;;5088482;28;20465;-68
2023/07/27 11:38:33;;;;;;;1.97;1.40;;;23.40;99.90;;;;;;5087246;28;20412;-68
2023/07/27 11:40:59;;;;;;;1.37;1.20;;;23.20;99.90;;;;;;5091036;28;20438;-68
2023/07/27 11:43:25;;;;;;;1.83;1.10;;;23.20;99.90;;;;;;5092166;28;20218;-68
2023/07/27 11:45:58;;;;;;;1.53;1.10;;;22.90;99.90;;;;;;5090316;28;20448;-67
2023/07/27 11:48:27;;;;;;;3.40;1.27;;;22.70;99.90;;;;;;5087017;28;20408;-67
2023/07/27 11:50:58;;;;;;;1.40;1.00;;;22.40;99.90;;;;;;5090604;28;20437;-68
2023/07/27 11:53:25;;;;;;;2.03;0.97;;;22.20;99.90;;;;;;5092014;28;20396;-68
2023/07/27 11:55:51;;;;;;;1.10;0.90;;;22.00;99.90;;;;;;5089125;28;20429;-67
2023/07/27 11:58:17;;;;;;;1.30;1.13;;;21.80;99.90;;;;;;5084736;28;20407;-67
2023/07/27 12:00:53;;;;;;;1.50;1.10;;;21.80;99.90;;;;;;5090225;28;20951;-67
2023/07/27 12:03:20;;;;;;;2.90;1.47;;;21.80;99.90;;;;;;5090691;28;20685;-67
2023/07/27 12:05:46;;;;;;;1.40;1.00;;;21.80;99.90;;;;;;5090129;28;20450;-68
2023/07/27 12:08:17;;;;;;;1.80;1.33;;;21.70;99.90;;;;;;5084886;28;20435;-68
2023/07/27 12:10:53;;;;;;;1.23;1.13;;;21.70;99.90;;;;;;5090461;28;20301;-68
2023/07/27 12:13:23;;;;;;;1.73;1.10;;;21.80;99.90;;;;;;5090511;28;20403;-68
2023/07/27 12:15:57;;;;;;;1.90;1.43;;;21.80;99.90;;;;;;5091609;28;20403;-67
2023/07/27 12:18:27;;;;;;;1.77;1.10;;;21.90;99.90;;;;;;5085855;28;20431;-67
2023/07/27 12:20:54;;;;;;;1.00;0.90;;;22.00;99.90;;;;;;5091537;28;20461;-68
2023/07/27 12:23:21;;;;;;;1.37;1.13;;;22.20;99.90;;;;;;5091689;28;20403;-68
2023/07/27 12:25:48;;;;;;;1.17;1.07;;;22.10;99.90;;;;;;5089941;28;20538;-68
2023/07/27 12:28:14;;;;;;;1.40;1.10;;;22.10;99.90;;;;;;5078372;28;20520;-68
2023/07/27 12:30:39;;;;;;;1.93;1.83;;;22.10;99.90;;;;;;5091322;28;20450;-68
2023/07/27 12:33:05;;;;;;;1.50;1.00;;;22.10;99.90;;;;;;5090318;28;20165;-68
2023/07/27 12:35:30;;;;;;;1.23;1.10;;;22.30;99.90;;;;;;5091200;28;20166;-67
2023/07/27 12:37:58;;;;;;;1.13;1.03;;;22.30;99.90;;;;;;5086416;28;20639;-68
2023/07/27 12:40:24;;;;;;;1.97;1.13;;;22.20;99.90;;;;;;5095019;28;20194;-67
2023/07/27 12:42:49;;;;;;;1.33;1.23;;;22.10;99.90;;;;;;5094951;28;20407;-68
2023/07/27 12:45:16;;;;;;;1.43;1.10;;;22.10;99.90;;;;;;5094627;28;20522;-68
2023/07/27 12:47:43;;;;;;;1.50;1.10;;;22.00;99.90;;;;;;5088661;28;20180;-67